createdAt,value
2022-08-17T00:00:43.547Z,15.23
2022-08-17T00:03:10.546Z,20.30
2022-08-17T00:05:41.659Z,17.00
2022-08-17T00:08:10.524Z,18.80
2022-08-17T00:10:39.671Z,22.27
2022-08-17T00:13:12.017Z,18.33
2022-08-17T00:15:39.984Z,22.50
2022-08-17T00:19:01.090Z,19.05
2022-08-17T00:20:58.464Z,25.83
2022-08-17T00:23:27.682Z,20.70
2022-08-17T00:25:56.056Z,20.93
2022-08-17T00:28:23.827Z,25.17
2022-08-17T00:30:53.806Z,19.90
2022-08-17T00:33:26.225Z,22.75
2022-08-17T00:35:54.913Z,22.83
2022-08-17T00:38:23.250Z,23.67
2022-08-17T00:40:55.975Z,25.70
2022-08-17T00:43:32.522Z,25.45
2022-08-17T00:46:03.442Z,24.03
2022-08-17T00:48:36.272Z,23.00
2022-08-17T00:51:08.496Z,29.45
2022-08-17T00:53:40.219Z,30.87
2022-08-17T00:56:13.981Z,29.63
2022-08-17T00:58:42.392Z,25.20
2022-08-17T01:01:11.315Z,23.85
2022-08-17T01:03:41.276Z,28.20
2022-08-17T01:06:11.592Z,23.25
2022-08-17T01:08:40.652Z,27.17
2022-08-17T01:11:09.250Z,28.83
2022-08-17T01:13:41.283Z,23.58
2022-08-17T01:16:18.988Z,23.90
2022-08-17T01:18:49.781Z,30.27
2022-08-17T01:21:24.274Z,28.38
2022-08-17T01:23:54.537Z,28.15
2022-08-17T01:26:23.193Z,29.42
2022-08-17T01:28:54.397Z,24.97
2022-08-17T01:31:25.854Z,31.73
2022-08-17T01:33:53.913Z,27.83
2022-08-17T01:36:22.020Z,29.55
2022-08-17T01:38:49.921Z,26.23
2022-08-17T01:41:20.443Z,29.27
2022-08-17T01:43:51.133Z,25.73
2022-08-17T01:46:23.139Z,30.33
2022-08-17T01:48:51.627Z,26.88
2022-08-17T01:51:21.137Z,30.08
2022-08-17T01:53:52.122Z,30.38
2022-08-17T01:56:23.099Z,29.42
2022-08-17T01:58:51.828Z,27.07
2022-08-17T02:01:21.491Z,32.10
2022-08-17T02:03:54.532Z,29.77
2022-08-17T02:06:31.365Z,31.27
2022-08-17T02:09:02.708Z,29.50
2022-08-17T02:11:34.869Z,30.53
2022-08-17T02:14:04.093Z,25.95
2022-08-17T02:16:37.906Z,36.50
2022-08-17T02:20:10.300Z,31.00
2022-08-17T02:22:40.010Z,34.35
2022-08-17T02:25:10.451Z,31.50
2022-08-17T02:27:41.821Z,34.28
2022-08-17T02:30:59.148Z,32.72
2022-08-17T02:33:04.026Z,35.58
2022-08-17T02:35:34.063Z,38.15
2022-08-17T02:38:02.107Z,43.57
2022-08-17T02:40:36.123Z,30.92
2022-08-17T02:43:06.190Z,40.95
2022-08-17T02:45:34.294Z,40.13
2022-08-17T02:48:02.182Z,42.90
2022-08-17T02:50:31.197Z,34.47
2022-08-17T02:53:02.286Z,26.90
2022-08-17T02:55:33.695Z,43.38
2022-08-17T02:58:01.793Z,49.10
2022-08-17T03:00:35.165Z,31.43
2022-08-17T03:03:05.833Z,32.47
2022-08-17T03:05:36.378Z,26.17
2022-08-17T03:08:07.412Z,33.38
2022-08-17T03:10:40.883Z,35.05
2022-08-17T03:13:09.366Z,34.67
2022-08-17T03:15:40.625Z,30.67
2022-08-17T03:18:09.340Z,35.63
2022-08-17T03:20:47.372Z,36.47
2022-08-17T03:23:15.893Z,41.17
2022-08-17T03:25:46.429Z,29.10
2022-08-17T03:28:14.275Z,33.37
2022-08-17T03:31:46.341Z,45.40
2022-08-17T03:34:16.393Z,36.30
2022-08-17T03:36:45.018Z,42.07
2022-08-17T03:39:13.135Z,37.83
2022-08-17T03:41:41.011Z,40.83
2022-08-17T03:44:08.723Z,40.15
2022-08-17T03:46:54.462Z,34.90
2022-08-17T03:49:41.457Z,40.28
2022-08-17T03:52:26.580Z,42.43
2022-08-17T03:55:12.140Z,41.90
2022-08-17T03:57:40.736Z,45.07
2022-08-17T04:00:09.303Z,42.30
2022-08-17T04:02:38.217Z,38.42
2022-08-17T04:05:08.030Z,35.92
2022-08-17T04:07:36.041Z,41.55
2022-08-17T04:10:05.317Z,40.88
2022-08-17T04:12:45.245Z,38.97
2022-08-17T04:15:14.039Z,40.45
2022-08-17T04:17:44.250Z,38.00
2022-08-17T04:20:15.121Z,43.45
2022-08-17T04:22:57.291Z,41.45
2022-08-17T04:25:25.529Z,39.45
2022-08-17T04:27:53.179Z,41.13
2022-08-17T04:30:22.732Z,36.78
2022-08-17T04:33:10.544Z,36.20
2022-08-17T04:35:41.707Z,37.28
2022-08-17T04:38:11.071Z,37.33
2022-08-17T04:40:57.428Z,35.70
2022-08-17T04:43:27.249Z,37.97
2022-08-17T04:45:57.818Z,33.73
2022-08-17T04:48:35.237Z,32.72
2022-08-17T04:51:10.298Z,32.40
2022-08-17T04:53:39.037Z,34.92
2022-08-17T04:56:11.830Z,33.55
2022-08-17T04:58:44.809Z,31.67
2022-08-17T05:01:12.921Z,30.20
2022-08-17T05:03:42.107Z,32.30
2022-08-17T05:06:14.722Z,28.67
2022-08-17T05:08:42.633Z,29.23
2022-08-17T05:11:12.107Z,31.63
2022-08-17T05:13:39.743Z,30.73
2022-08-17T05:16:08.966Z,29.52
2022-08-17T05:18:38.922Z,27.73
2022-08-17T05:21:08.424Z,29.58
2022-08-17T05:23:42.874Z,28.33
2022-08-17T05:26:25.831Z,28.93
2022-08-17T05:28:59.634Z,24.73
2022-08-17T05:31:29.377Z,24.10
2022-08-17T05:33:57.886Z,28.67
2022-08-17T05:36:42.368Z,23.48
2022-08-17T05:39:16.898Z,25.23
2022-08-17T05:41:47.963Z,26.08
2022-08-17T05:44:16.070Z,28.63
2022-08-17T05:46:48.618Z,27.40
2022-08-17T05:49:19.063Z,26.42
2022-08-17T05:52:02.660Z,29.75
2022-08-17T05:54:39.931Z,24.88
2022-08-17T05:57:18.066Z,25.58
2022-08-17T05:59:54.312Z,25.07
2022-08-17T06:02:26.538Z,25.03
2022-08-17T06:05:12.222Z,24.08
2022-08-17T06:07:48.026Z,26.98
2022-08-17T06:10:21.737Z,21.65
2022-08-17T06:12:57.737Z,21.27
2022-08-17T06:15:31.918Z,21.05
2022-08-17T06:18:02.173Z,22.38
2022-08-17T06:20:37.373Z,22.48
2022-08-17T06:23:08.127Z,20.23
2022-08-17T06:25:41.935Z,21.42
2022-08-17T06:28:14.205Z,27.27
2022-08-17T06:30:59.560Z,20.17
2022-08-17T06:33:34.551Z,25.77
2022-08-17T06:36:14.592Z,25.35
2022-08-17T06:38:50.873Z,22.83
2022-08-17T06:42:54.861Z,23.63
2022-08-17T06:45:15.890Z,24.60
2022-08-17T06:47:47.403Z,24.13
2022-08-17T06:50:20.829Z,25.13
2022-08-17T06:52:53.957Z,22.30
2022-08-17T06:55:27.469Z,22.40
2022-08-17T06:57:59.088Z,19.65
2022-08-17T07:00:33.493Z,21.75
2022-08-17T07:03:06.747Z,21.30
2022-08-17T07:05:38.732Z,21.95
2022-08-17T07:08:11.627Z,18.27
2022-08-17T07:10:43.042Z,16.70
2022-08-17T07:13:29.653Z,16.88
2022-08-17T07:16:07.761Z,22.67
2022-08-17T07:18:35.541Z,20.63
2022-08-17T07:21:17.565Z,19.23
2022-08-17T07:23:57.284Z,17.25
2022-08-17T07:26:25.769Z,16.75
2022-08-17T07:28:56.105Z,17.65
2022-08-17T07:31:27.299Z,14.88
2022-08-17T07:34:05.597Z,15.32
2022-08-17T07:36:34.811Z,15.30
2022-08-17T07:39:05.247Z,14.40
2022-08-17T07:41:57.490Z,16.97
2022-08-17T07:44:24.445Z,12.85
2022-08-17T07:47:12.528Z,11.52
2022-08-17T07:49:41.812Z,13.15
2022-08-17T07:52:47.873Z,11.07
2022-08-17T07:55:00.510Z,14.05
2022-08-17T07:57:35.434Z,12.18
2022-08-17T08:00:17.146Z,14.07
2022-08-17T08:03:01.617Z,10.77
2022-08-17T08:05:49.766Z,10.43
2022-08-17T08:08:23.986Z,11.98
2022-08-17T08:11:00.703Z,9.75
2022-08-17T08:13:30.409Z,12.75
2022-08-17T08:16:14.434Z,13.40
2022-08-17T08:18:55.517Z,12.18
2022-08-17T08:21:34.836Z,12.10
2022-08-17T08:24:16.753Z,17.02
2022-08-17T08:26:49.113Z,9.35
2022-08-17T08:29:23.281Z,10.67
2022-08-17T08:32:04.661Z,8.98
2022-08-17T08:35:00.538Z,9.32
2022-08-17T08:37:42.707Z,7.85
2022-08-17T08:40:25.107Z,10.33
2022-08-17T08:42:59.983Z,7.22
2022-08-17T08:45:33.461Z,8.20
2022-08-17T08:48:12.825Z,11.82
2022-08-17T08:51:05.834Z,11.55
2022-08-17T08:53:41.478Z,9.07
2022-08-17T08:56:12.739Z,11.48
2022-08-17T08:58:50.803Z,10.50
2022-08-17T09:01:22.814Z,8.13
2022-08-17T09:04:23.403Z,8.95
2022-08-17T09:07:03.837Z,10.93
2022-08-17T09:09:53.365Z,16.92
2022-08-17T09:12:31.619Z,11.00
2022-08-17T09:15:08.304Z,6.63
2022-08-17T09:17:45.119Z,5.75
2022-08-17T09:20:28.154Z,6.85
2022-08-17T09:23:06.527Z,8.80
2022-08-17T09:25:45.365Z,7.30
2022-08-17T09:28:19.261Z,10.38
2022-08-17T09:30:49.731Z,9.02
2022-08-17T09:33:22.857Z,8.57
2022-08-17T09:35:55.019Z,9.85
2022-08-17T09:38:32.641Z,8.07
2022-08-17T09:41:04.329Z,8.52
2022-08-17T09:43:39.238Z,5.20
2022-08-17T09:46:12.572Z,10.00
2022-08-17T09:48:43.673Z,6.70
2022-08-17T09:51:16.755Z,5.20
2022-08-17T09:53:45.903Z,10.40
2022-08-17T09:56:25.399Z,12.52
2022-08-17T09:59:38.598Z,5.40
2022-08-17T10:02:21.913Z,7.90
2022-08-17T10:04:55.557Z,5.95
2022-08-17T10:07:30.453Z,8.20
2022-08-17T10:10:05.259Z,7.97
2022-08-17T10:12:38.244Z,6.30
2022-08-17T10:15:14.991Z,5.93
2022-08-17T10:17:56.500Z,4.97
2022-08-17T10:20:27.750Z,5.43
2022-08-17T10:23:19.369Z,6.73
2022-08-17T10:26:08.703Z,10.40
2022-08-17T10:28:40.465Z,8.25
2022-08-17T10:31:33.673Z,4.60
2022-08-17T10:34:08.632Z,7.75
2022-08-17T10:36:46.140Z,7.72
2022-08-17T10:39:22.157Z,6.70
2022-08-17T10:41:55.692Z,6.82
2022-08-17T10:44:38.520Z,8.80
2022-08-17T10:47:11.835Z,5.85
2022-08-17T10:49:48.137Z,5.03
2022-08-17T10:52:48.507Z,7.13
2022-08-17T10:55:19.132Z,5.28
2022-08-17T10:57:50.383Z,8.10
2022-08-17T11:00:58.415Z,9.60
2022-08-17T11:03:27.040Z,9.98
2022-08-17T11:06:02.295Z,7.07
2022-08-17T11:09:01.567Z,12.65
2022-08-17T11:11:43.087Z,12.93
2022-08-17T11:14:26.251Z,8.43
2022-08-17T11:17:07.613Z,11.32
2022-08-17T11:19:47.238Z,12.27
2022-08-17T11:22:45.207Z,8.30
2022-08-17T11:25:15.935Z,8.63
2022-08-17T11:27:45.509Z,7.30
2022-08-17T11:30:17.421Z,9.18
2022-08-17T11:32:54.316Z,6.45
2022-08-17T11:35:31.472Z,6.40
2022-08-17T11:38:16.067Z,9.33
2022-08-17T11:41:04.227Z,15.32
2022-08-17T11:44:02.032Z,6.72
2022-08-17T11:46:59.187Z,5.77
2022-08-17T11:49:55.656Z,4.63
2022-08-17T11:52:41.704Z,5.13
2022-08-17T11:55:52.879Z,5.55
2022-08-17T11:58:38.595Z,5.35
2022-08-17T12:01:07.182Z,14.05
2022-08-17T12:03:54.451Z,10.73
2022-08-17T12:06:42.934Z,11.00
2022-08-17T12:09:15.843Z,9.18
2022-08-17T12:11:56.247Z,10.65
2022-08-17T12:15:08.135Z,7.88
2022-08-17T12:17:40.555Z,6.30
2022-08-17T12:20:15.230Z,5.78
2022-08-17T12:22:50.337Z,9.65
2022-08-17T12:25:22.653Z,7.60
2022-08-17T12:28:04.804Z,7.05
2022-08-17T12:30:33.882Z,8.68
2022-08-17T12:33:02.191Z,15.68
2022-08-17T12:35:35.354Z,6.53
2022-08-17T12:38:06.589Z,5.60
2022-08-17T12:40:55.612Z,9.27
2022-08-17T12:43:31.196Z,8.60
2022-08-17T12:46:01.161Z,6.45
2022-08-17T12:48:59.389Z,7.35
2022-08-17T12:51:30.325Z,5.90
2022-08-17T12:53:58.032Z,13.23
2022-08-17T12:56:26.171Z,8.27
2022-08-17T12:58:56.714Z,10.13
2022-08-17T13:01:25.129Z,7.90
2022-08-17T13:03:57.309Z,5.78
2022-08-17T13:06:32.341Z,6.78
2022-08-17T13:09:10.455Z,6.00
2022-08-17T13:11:48.747Z,5.10
2022-08-17T13:14:18.550Z,11.13
2022-08-17T13:16:51.618Z,6.53
2022-08-17T13:19:39.840Z,7.78
2022-08-17T13:22:12.445Z,6.03
2022-08-17T13:24:53.100Z,6.45
2022-08-17T13:27:23.331Z,4.40
2022-08-17T13:29:57.353Z,5.25
2022-08-17T13:32:36.127Z,4.40
2022-08-17T13:35:42.895Z,3.47
2022-08-17T13:38:15.901Z,6.38
2022-08-17T13:40:51.442Z,4.40
2022-08-17T13:43:43.885Z,3.97
2022-08-17T13:46:17.625Z,5.88
2022-08-17T13:48:45.471Z,4.45
2022-08-17T13:51:26.265Z,5.07
2022-08-17T13:54:07.085Z,3.83
2022-08-17T13:56:39.674Z,4.97
2022-08-17T13:59:11.264Z,5.95
2022-08-17T14:01:41.167Z,4.45
2022-08-17T14:04:11.186Z,4.00
2022-08-17T14:06:51.943Z,3.30
2022-08-17T14:09:26.641Z,4.88
2022-08-17T14:11:55.613Z,2.90
2022-08-17T14:14:24.096Z,3.85
2022-08-17T14:16:51.949Z,1.42
2022-08-17T14:19:21.802Z,1.58
2022-08-17T14:21:49.873Z,2.97
2022-08-17T14:24:24.266Z,3.83
2022-08-17T14:26:53.149Z,1.70
2022-08-17T14:29:21.204Z,2.30
2022-08-17T14:31:53.226Z,3.63
2022-08-17T14:34:22.605Z,3.92
2022-08-17T14:36:51.057Z,6.70
2022-08-17T14:39:20.103Z,2.00
2022-08-17T14:41:49.966Z,2.28
2022-08-17T14:44:17.785Z,4.63
2022-08-17T14:46:46.153Z,3.35
2022-08-17T14:49:15.601Z,3.35
2022-08-17T14:51:43.912Z,2.47
2022-08-17T14:54:33.632Z,1.95
2022-08-17T14:57:23.383Z,2.05
2022-08-17T14:59:54.797Z,2.10
2022-08-17T15:02:30.142Z,3.08
2022-08-17T15:06:02.942Z,3.03
2022-08-17T15:08:31.713Z,6.80
2022-08-17T15:10:59.523Z,3.03
2022-08-17T15:13:28.620Z,2.25
2022-08-17T15:15:56.691Z,4.55
2022-08-17T15:18:24.923Z,2.58
2022-08-17T15:20:52.912Z,2.30
2022-08-17T15:23:23.884Z,5.60
2022-08-17T15:25:53.633Z,4.97
2022-08-17T15:28:22.717Z,8.15
2022-08-17T15:30:52.597Z,14.25
2022-08-17T15:33:29.322Z,11.02
2022-08-17T15:35:59.628Z,18.05
2022-08-17T15:38:28.186Z,14.93
2022-08-17T15:40:57.630Z,15.50
2022-08-17T15:43:28.210Z,13.50
2022-08-17T15:46:01.067Z,16.70
2022-08-17T15:48:40.850Z,17.25
2022-08-17T15:51:13.826Z,26.08
2022-08-17T15:53:43.220Z,20.75
2022-08-17T15:56:11.578Z,22.88
2022-08-17T15:58:40.045Z,23.40
2022-08-17T16:01:15.128Z,24.13
2022-08-17T16:04:04.096Z,26.92
2022-08-17T16:06:34.653Z,28.40
2022-08-17T16:09:02.496Z,25.58
2022-08-17T16:11:31.318Z,26.23
2022-08-17T16:13:59.138Z,30.60
2022-08-17T16:16:31.453Z,30.27
2022-08-17T16:18:59.458Z,24.58
2022-08-17T16:21:29.663Z,23.98
2022-08-17T16:24:02.249Z,23.98
2022-08-17T16:26:31.372Z,26.20
2022-08-17T16:29:00.969Z,23.27
2022-08-17T16:31:30.221Z,22.63
2022-08-17T16:34:17.745Z,22.25
2022-08-17T16:36:53.608Z,25.00
2022-08-17T16:39:24.864Z,21.63
2022-08-17T16:41:52.664Z,27.33
2022-08-17T16:44:21.771Z,27.60
2022-08-17T16:46:51.389Z,27.95
2022-08-17T16:49:35.333Z,30.50
2022-08-17T16:52:10.362Z,32.47
2022-08-17T16:54:40.518Z,29.98
2022-08-17T16:57:08.241Z,33.70
2022-08-17T16:59:40.935Z,31.50
2022-08-17T17:02:15.526Z,33.58
2022-08-17T17:04:48.639Z,33.10
2022-08-17T17:07:34.739Z,32.72
2022-08-17T17:10:06.165Z,34.28
2022-08-17T17:13:00.923Z,34.08
2022-08-17T17:15:22.475Z,32.72
2022-08-17T17:17:53.558Z,31.23
2022-08-17T17:20:25.961Z,29.58
2022-08-17T17:23:05.637Z,37.20
2022-08-17T17:25:37.292Z,33.45
2022-08-17T17:28:10.035Z,28.97
2022-08-17T17:30:50.570Z,31.63
2022-08-17T17:33:22.559Z,33.65
2022-08-17T17:35:52.659Z,32.97
2022-08-17T17:38:23.278Z,29.30
2022-08-17T17:41:02.352Z,30.25
2022-08-17T17:43:39.752Z,30.83
2022-08-17T17:46:27.522Z,30.33
2022-08-17T17:48:59.289Z,32.07
2022-08-17T17:52:06.548Z,30.17
2022-08-17T17:54:32.517Z,28.30
2022-08-17T17:57:04.490Z,26.85
2022-08-17T17:59:43.761Z,36.92
2022-08-17T18:02:37.273Z,34.97
2022-08-17T18:05:11.982Z,30.40
2022-08-17T18:07:46.460Z,33.88
2022-08-17T18:10:29.297Z,35.63
2022-08-17T18:13:03.735Z,34.03
2022-08-17T18:15:36.063Z,35.90
2022-08-17T18:18:37.982Z,34.38
2022-08-17T18:21:16.895Z,32.85
2022-08-17T18:23:49.587Z,35.63
2022-08-17T18:26:37.467Z,34.35
2022-08-17T18:29:15.240Z,32.42
2022-08-17T18:31:42.903Z,34.72
2022-08-17T18:34:43.786Z,32.58
2022-08-17T18:37:16.025Z,34.50
2022-08-17T18:39:47.219Z,32.57
2022-08-17T18:42:25.697Z,32.05
2022-08-17T18:44:55.597Z,33.72
2022-08-17T18:47:25.873Z,33.45
2022-08-17T18:49:57.976Z,31.30
2022-08-17T18:52:29.028Z,35.22
2022-08-17T18:55:08.473Z,33.65
2022-08-17T18:57:38.313Z,33.42
2022-08-17T19:00:13.132Z,33.22
2022-08-17T19:02:51.473Z,34.23
2022-08-17T19:05:32.704Z,30.40
2022-08-17T19:10:59.154Z,32.63
2022-08-17T19:13:32.312Z,30.17
2022-08-17T19:16:10.132Z,32.50
2022-08-17T19:18:45.262Z,35.22
2022-08-17T19:21:16.312Z,34.33
2022-08-17T19:23:53.943Z,31.35
2022-08-17T19:26:54.799Z,33.88
2022-08-17T19:29:19.618Z,32.00
2022-08-17T19:31:50.117Z,35.13
2022-08-17T19:34:33.128Z,37.93
2022-08-17T19:37:06.752Z,31.95
2022-08-17T19:39:40.162Z,37.42
2022-08-17T19:42:13.576Z,33.42
2022-08-17T19:44:49.724Z,34.38
2022-08-17T19:47:50.946Z,33.45
2022-08-17T19:50:18.920Z,35.15
2022-08-17T19:52:52.875Z,30.60
2022-08-17T19:55:31.428Z,33.38
2022-08-17T19:58:17.794Z,33.42
2022-08-17T20:00:50.340Z,33.63
2022-08-17T20:03:23.116Z,36.03
2022-08-17T20:08:46.201Z,32.20
2022-08-17T20:11:18.390Z,35.10
2022-08-17T20:13:50.993Z,32.60
2022-08-17T20:16:19.596Z,32.47
2022-08-17T20:18:53.356Z,31.00
2022-08-17T20:21:25.797Z,35.05
2022-08-17T20:23:56.060Z,32.50
2022-08-17T20:26:27.500Z,35.97
2022-08-17T20:29:37.715Z,36.67
2022-08-17T20:32:16.328Z,32.00
2022-08-17T20:34:46.798Z,36.00
2022-08-17T20:37:27.877Z,35.97
2022-08-17T20:40:21.755Z,38.73
2022-08-17T20:42:49.645Z,34.50
2022-08-17T20:46:02.082Z,35.00
2022-08-17T20:48:39.148Z,38.20
2022-08-17T20:51:20.290Z,40.27
2022-08-17T20:54:06.855Z,36.60
2022-08-17T20:56:48.956Z,39.50
2022-08-17T20:59:50.144Z,42.60
2022-08-17T21:02:21.694Z,39.78
2022-08-17T21:05:06.966Z,42.80
2022-08-17T21:07:52.923Z,41.47
2022-08-17T21:10:31.930Z,45.05
2022-08-17T21:13:05.904Z,42.85
2022-08-17T21:15:40.395Z,46.00
2022-08-17T21:18:13.926Z,38.10
2022-08-17T21:21:01.456Z,37.15
2022-08-17T21:23:45.519Z,42.53
2022-08-17T21:26:28.113Z,45.22
2022-08-17T21:29:29.953Z,51.47
2022-08-17T21:32:19.066Z,47.20
2022-08-17T21:35:18.575Z,50.05
2022-08-17T21:37:49.119Z,50.17
2022-08-17T21:40:25.422Z,54.85
2022-08-17T21:42:55.681Z,52.10
2022-08-17T21:45:27.357Z,52.80
2022-08-17T21:48:09.516Z,52.08
2022-08-17T21:50:37.836Z,52.87
2022-08-17T21:53:09.078Z,53.40
2022-08-17T21:55:37.571Z,54.58
2022-08-17T21:58:14.569Z,52.70
2022-08-17T22:00:44.127Z,55.10
2022-08-17T22:03:24.720Z,59.95
2022-08-17T22:05:52.701Z,60.23
2022-08-17T22:08:24.140Z,57.92
2022-08-17T22:10:57.821Z,60.72
2022-08-17T22:13:29.445Z,63.87
2022-08-17T22:16:15.441Z,60.22
2022-08-17T22:18:58.267Z,62.15
2022-08-17T22:21:26.426Z,62.33
2022-08-17T22:24:07.125Z,61.55
2022-08-17T22:26:59.851Z,68.88
2022-08-17T22:29:53.128Z,71.45
2022-08-17T22:32:34.978Z,71.25
2022-08-17T22:35:28.431Z,72.28
2022-08-17T22:37:56.328Z,71.30
2022-08-17T22:40:31.521Z,72.65
2022-08-17T22:43:00.574Z,76.00
2022-08-17T22:45:29.728Z,75.60
2022-08-17T22:47:58.644Z,83.20
2022-08-17T22:50:29.361Z,65.97
2022-08-17T22:53:16.787Z,83.33
2022-08-17T22:56:10.539Z,81.17
2022-08-17T22:59:01.430Z,84.85
2022-08-17T23:01:32.592Z,90.83
2022-08-17T23:04:02.416Z,72.85
2022-08-17T23:06:32.416Z,89.70
2022-08-17T23:09:03.825Z,87.97
2022-08-17T23:11:50.066Z,94.95
2022-08-17T23:14:19.816Z,91.93
2022-08-17T23:16:47.788Z,77.63
2022-08-17T23:19:17.393Z,95.70
2022-08-17T23:21:46.163Z,87.53
2022-08-17T23:24:16.584Z,89.05
2022-08-17T23:26:46.647Z,86.55
2022-08-17T23:29:14.240Z,103.45
2022-08-17T23:31:43.157Z,83.88
2022-08-17T23:34:14.576Z,82.20
2022-08-17T23:36:52.958Z,83.90
2022-08-17T23:39:24.314Z,103.03
2022-08-17T23:41:54.037Z,89.07
2022-08-17T23:44:23.627Z,87.78
2022-08-17T23:46:52.123Z,93.82
2022-08-17T23:49:20.188Z,90.60
2022-08-17T23:51:49.201Z,94.25
2022-08-17T23:54:21.775Z,98.47
2022-08-17T23:56:49.551Z,88.60
2022-08-17T23:59:21.062Z,96.05
